createdAt,value
2018-05-12T00:01:41.352Z,15.20
2018-05-12T00:04:12.736Z,15.30
2018-05-12T00:06:45.913Z,15.30
2018-05-12T00:09:18.481Z,15.30
2018-05-12T00:11:51.097Z,14.90
2018-05-12T00:14:32.268Z,14.80
2018-05-12T00:17:02.143Z,14.80
2018-05-12T00:19:31.798Z,14.80
2018-05-12T00:22:00.093Z,14.90
2018-05-12T00:24:28.890Z,14.90
2018-05-12T00:27:00.752Z,15.00
2018-05-12T00:29:29.098Z,15.00
2018-05-12T00:31:58.067Z,14.80
2018-05-12T00:34:27.620Z,14.60
2018-05-12T00:36:56.396Z,14.20
2018-05-12T00:39:24.716Z,14.10
2018-05-12T00:41:53.039Z,14.20
2018-05-12T00:44:21.844Z,14.30
2018-05-12T00:46:55.460Z,14.30
2018-05-12T00:49:24.536Z,14.30
2018-05-12T00:51:53.423Z,14.50
2018-05-12T00:54:22.053Z,14.20
2018-05-12T00:56:50.824Z,14.20
2018-05-12T00:59:19.072Z,13.90
2018-05-12T01:01:47.457Z,13.90
2018-05-12T01:04:15.551Z,13.70
2018-05-12T01:06:44.648Z,13.70
2018-05-12T01:09:13.420Z,13.60
2018-05-12T01:11:42.207Z,13.90
2018-05-12T01:14:10.540Z,13.70
2018-05-12T01:16:39.433Z,13.50
2018-05-12T01:19:08.582Z,13.30
2018-05-12T01:21:36.900Z,13.30
2018-05-12T01:24:06.164Z,13.30
2018-05-12T01:26:34.388Z,13.20
2018-05-12T01:29:05.151Z,12.90
2018-05-12T01:31:33.948Z,12.90
2018-05-12T01:34:02.812Z,12.80
2018-05-12T01:36:31.125Z,12.70
2018-05-12T01:39:00.021Z,13.00
2018-05-12T01:41:28.791Z,12.70
2018-05-12T01:43:57.592Z,12.90
2018-05-12T01:46:28.321Z,12.70
2018-05-12T01:48:57.212Z,12.90
2018-05-12T01:51:25.452Z,12.90
2018-05-12T01:53:53.520Z,12.60
2018-05-12T01:56:25.624Z,12.50
2018-05-12T01:58:54.408Z,12.50
2018-05-12T02:01:22.715Z,12.20
2018-05-12T02:03:50.800Z,12.20
2018-05-12T02:06:18.912Z,12.30
2018-05-12T02:08:46.977Z,12.40
2018-05-12T02:11:15.305Z,12.40
2018-05-12T02:13:44.041Z,12.10
2018-05-12T02:16:13.127Z,12.00
2018-05-12T02:18:41.972Z,12.10
2018-05-12T02:21:10.757Z,12.20
2018-05-12T02:23:39.547Z,12.20
2018-05-12T02:26:08.425Z,12.10
2018-05-12T02:28:37.233Z,12.10
2018-05-12T02:31:05.541Z,12.20
2018-05-12T02:33:34.387Z,12.30
2018-05-12T02:36:03.350Z,12.40
2018-05-12T02:38:31.644Z,12.30
2018-05-12T02:41:01.385Z,12.10
2018-05-12T02:43:29.683Z,12.20
2018-05-12T02:45:57.956Z,12.20
2018-05-12T02:48:26.187Z,12.20
2018-05-12T02:50:54.977Z,12.20
2018-05-12T02:53:23.976Z,12.00
2018-05-12T02:55:52.180Z,12.10
2018-05-12T02:58:22.167Z,12.10
2018-05-12T03:00:51.069Z,12.20
2018-05-12T03:03:19.849Z,12.00
2018-05-12T03:05:48.156Z,11.80
2018-05-12T03:08:16.464Z,11.80
2018-05-12T03:10:45.652Z,11.70
2018-05-12T03:13:15.100Z,11.50
2018-05-12T03:15:43.916Z,11.50
2018-05-12T03:18:12.241Z,11.60
2018-05-12T03:20:41.159Z,11.40
2018-05-12T03:23:09.924Z,11.30
2018-05-12T03:25:38.723Z,11.50
2018-05-12T03:28:10.367Z,11.10
2018-05-12T03:30:39.489Z,11.30
2018-05-12T03:33:08.067Z,11.40
2018-05-12T03:35:36.354Z,11.20
2018-05-12T03:38:06.263Z,11.40
2018-05-12T03:40:35.048Z,11.30
2018-05-12T03:43:03.410Z,11.30
2018-05-12T03:45:31.611Z,11.30
2018-05-12T03:48:00.392Z,11.30
2018-05-12T03:50:29.167Z,11.30
2018-05-12T03:52:57.964Z,11.50
2018-05-12T03:55:26.856Z,11.60
2018-05-12T03:57:55.135Z,11.40
2018-05-12T04:00:23.460Z,11.50
2018-05-12T04:02:51.760Z,11.70
2018-05-12T04:05:38.295Z,11.80
2018-05-12T04:08:24.807Z,11.70
2018-05-12T04:11:14.588Z,11.70
2018-05-12T04:13:43.657Z,11.60
2018-05-12T04:16:12.132Z,11.60
2018-05-12T04:18:44.542Z,11.60
2018-05-12T04:21:13.302Z,11.50
2018-05-12T04:23:45.899Z,11.50
2018-05-12T04:26:14.943Z,11.70
2018-05-12T04:28:43.774Z,12.00
2018-05-12T04:31:12.684Z,11.70
2018-05-12T04:33:41.568Z,11.80
2018-05-12T04:36:09.948Z,11.70
2018-05-12T04:38:40.165Z,11.90
2018-05-12T04:41:09.773Z,11.80
2018-05-12T04:43:38.564Z,11.70
2018-05-12T04:46:06.632Z,11.70
2018-05-12T04:48:36.482Z,11.80
2018-05-12T04:51:06.212Z,11.90
2018-05-12T04:53:35.780Z,11.80
2018-05-12T04:56:04.127Z,11.70
2018-05-12T04:58:32.313Z,11.70
2018-05-12T05:01:01.433Z,11.70
2018-05-12T05:03:30.188Z,11.70
2018-05-12T05:05:59.049Z,11.80
2018-05-12T05:08:28.612Z,11.90
2018-05-12T05:10:57.400Z,11.90
2018-05-12T05:13:28.213Z,12.10
2018-05-12T05:15:57.033Z,12.00
2018-05-12T05:18:25.798Z,11.90
2018-05-12T05:20:54.226Z,12.10
2018-05-12T05:23:22.476Z,12.10
2018-05-12T05:25:50.742Z,12.10
2018-05-12T05:28:19.124Z,12.20
2018-05-12T05:30:47.886Z,12.30
2018-05-12T05:33:16.686Z,12.40
2018-05-12T05:35:45.049Z,12.50
2018-05-12T05:38:13.865Z,12.50
2018-05-12T05:40:42.601Z,12.40
2018-05-12T05:43:12.246Z,12.50
2018-05-12T05:45:41.126Z,12.60
2018-05-12T05:48:09.953Z,12.60
2018-05-12T05:50:38.085Z,12.60
2018-05-12T05:53:07.781Z,12.70
2018-05-12T05:55:36.993Z,12.90
2018-05-12T05:58:05.877Z,13.00
2018-05-12T06:00:35.567Z,13.00
2018-05-12T06:03:04.733Z,13.10
2018-05-12T06:05:33.826Z,13.10
2018-05-12T06:08:03.291Z,13.20
2018-05-12T06:10:32.101Z,13.30
2018-05-12T06:13:01.301Z,13.40
2018-05-12T06:15:31.190Z,13.50
2018-05-12T06:17:59.353Z,13.60
2018-05-12T06:20:28.077Z,13.60
2018-05-12T06:22:56.190Z,13.80
2018-05-12T06:25:25.652Z,13.90
2018-05-12T06:27:54.280Z,14.00
2018-05-12T06:30:22.552Z,14.10
2018-05-12T06:32:51.912Z,14.20
2018-05-12T06:35:20.366Z,14.30
2018-05-12T06:37:49.682Z,14.50
2018-05-12T06:40:18.618Z,14.60
2018-05-12T06:42:47.293Z,14.70
2018-05-12T06:45:15.640Z,14.80
2018-05-12T06:47:44.493Z,14.90
2018-05-12T06:50:13.059Z,15.00
2018-05-12T06:52:42.222Z,15.10
2018-05-12T06:55:11.725Z,15.20
2018-05-12T06:57:40.176Z,15.20
2018-05-12T07:00:08.933Z,15.30
2018-05-12T07:02:37.044Z,15.30
2018-05-12T07:05:05.467Z,15.40
2018-05-12T07:07:33.779Z,15.50
2018-05-12T07:10:02.867Z,15.50
2018-05-12T07:12:32.726Z,15.60
2018-05-12T07:15:01.135Z,15.70
2018-05-12T07:17:29.501Z,15.70
2018-05-12T07:19:58.692Z,15.80
2018-05-12T07:22:27.486Z,15.80
2018-05-12T07:24:56.497Z,15.90
2018-05-12T07:27:25.691Z,15.90
2018-05-12T07:29:54.044Z,16.00
2018-05-12T07:32:22.456Z,16.10
2018-05-12T07:34:51.344Z,16.10
2018-05-12T07:37:21.956Z,16.10
2018-05-12T07:39:50.268Z,16.20
2018-05-12T07:42:20.461Z,16.20
2018-05-12T07:44:49.365Z,16.20
2018-05-12T07:47:18.119Z,16.20
2018-05-12T07:49:50.072Z,16.30
2018-05-12T07:52:18.296Z,16.40
2018-05-12T07:54:46.883Z,16.40
2018-05-12T07:57:15.752Z,16.40
2018-05-12T07:59:44.536Z,16.40
2018-05-12T08:02:12.796Z,16.50
2018-05-12T08:04:44.539Z,16.50
2018-05-12T08:07:23.093Z,16.50
2018-05-12T08:09:55.194Z,16.60
2018-05-12T08:12:23.272Z,16.60
2018-05-12T08:14:51.367Z,16.60
2018-05-12T08:17:19.456Z,16.70
2018-05-12T08:19:47.552Z,16.80
2018-05-12T08:22:15.628Z,16.80
2018-05-12T08:24:44.501Z,16.90
2018-05-12T08:27:12.580Z,16.90
2018-05-12T08:29:40.698Z,17.00
2018-05-12T08:32:08.765Z,17.00
2018-05-12T08:34:37.061Z,17.00
2018-05-12T08:37:05.151Z,17.10
2018-05-12T08:39:33.281Z,17.10
2018-05-12T08:42:02.248Z,17.10
2018-05-12T08:44:30.316Z,17.20
2018-05-12T08:46:58.411Z,17.20
2018-05-12T08:49:26.495Z,17.30
2018-05-12T08:51:54.606Z,17.40
2018-05-12T08:54:22.705Z,17.50
2018-05-12T08:56:50.773Z,17.60
2018-05-12T08:59:18.860Z,17.60
2018-05-12T09:01:46.936Z,17.70
2018-05-12T09:04:15.254Z,17.70
2018-05-12T09:06:43.339Z,17.70
2018-05-12T09:09:11.452Z,17.80
2018-05-12T09:11:39.543Z,17.90
2018-05-12T09:14:08.710Z,17.80
2018-05-12T09:16:37.693Z,17.90
2018-05-12T09:19:05.810Z,18.00
2018-05-12T09:21:33.899Z,18.00
2018-05-12T09:24:01.967Z,18.00
2018-05-12T09:26:30.072Z,18.10
2018-05-12T09:28:58.141Z,18.10
2018-05-12T09:31:26.244Z,18.20
2018-05-12T09:33:54.324Z,18.20
2018-05-12T09:36:22.416Z,18.30
2018-05-12T09:38:50.491Z,18.30
2018-05-12T09:41:19.356Z,18.50
2018-05-12T09:43:47.471Z,18.60
2018-05-12T09:46:15.601Z,18.70
2018-05-12T09:48:43.704Z,18.80
2018-05-12T09:51:11.813Z,18.80
2018-05-12T09:53:39.888Z,18.90
2018-05-12T09:56:08.740Z,18.90
2018-05-12T09:58:37.564Z,19.00
2018-05-12T10:01:05.675Z,19.00
2018-05-12T10:03:34.538Z,19.00
2018-05-12T10:06:02.603Z,19.00
2018-05-12T10:08:30.724Z,19.00
2018-05-12T10:10:58.803Z,19.00
2018-05-12T10:13:27.908Z,19.10
2018-05-12T10:15:56.003Z,19.10
2018-05-12T10:18:24.347Z,19.10
2018-05-12T10:20:52.399Z,19.10
2018-05-12T10:23:20.532Z,19.10
2018-05-12T10:25:48.666Z,19.20
2018-05-12T10:28:16.728Z,19.20
2018-05-12T10:30:45.760Z,19.20
2018-05-12T10:33:13.832Z,19.20
2018-05-12T10:35:41.934Z,19.30
2018-05-12T10:38:10.076Z,19.40
2018-05-12T10:40:38.160Z,19.50
2018-05-12T10:43:06.253Z,19.50
2018-05-12T10:45:34.336Z,19.50
2018-05-12T10:48:03.148Z,19.60
2018-05-12T10:50:31.246Z,19.50
2018-05-12T10:53:01.008Z,19.60
2018-05-12T10:55:29.091Z,19.80
2018-05-12T10:57:57.430Z,19.90
2018-05-12T11:00:25.515Z,19.90
2018-05-12T11:02:53.615Z,19.90
2018-05-12T11:05:21.705Z,20.10
2018-05-12T11:07:49.790Z,20.10
2018-05-12T11:10:19.032Z,20.00
2018-05-12T11:12:47.129Z,20.10
2018-05-12T11:15:15.218Z,20.10
2018-05-12T11:18:21.948Z,20.10
2018-05-12T11:20:52.128Z,20.20
2018-05-12T11:23:21.011Z,20.20
2018-05-12T11:25:49.891Z,20.30
2018-05-12T11:28:18.031Z,20.40
2018-05-12T11:30:47.056Z,20.40
2018-05-12T11:33:15.132Z,20.40
2018-05-12T11:35:43.248Z,20.50
2018-05-12T11:38:11.348Z,20.50
2018-05-12T11:40:39.432Z,20.60
2018-05-12T11:43:07.503Z,20.70
2018-05-12T11:45:35.592Z,20.80
2018-05-12T11:48:03.684Z,20.90
2018-05-12T11:50:32.559Z,21.00
2018-05-12T11:53:00.636Z,21.10
2018-05-12T11:55:28.721Z,21.20
2018-05-12T11:57:57.608Z,21.30
2018-05-12T12:00:26.661Z,21.50
2018-05-12T12:02:54.761Z,21.80
2018-05-12T12:05:22.848Z,22.20
2018-05-12T12:07:51.699Z,22.40
2018-05-12T12:10:20.578Z,22.40
2018-05-12T12:12:48.640Z,22.60
2018-05-12T12:15:16.744Z,23.00
2018-05-12T12:17:44.828Z,23.50
2018-05-12T12:20:12.927Z,23.80
2018-05-12T12:22:41.968Z,23.80
2018-05-12T12:25:10.833Z,24.10
2018-05-12T12:27:38.914Z,24.30
2018-05-12T12:30:07.026Z,24.50
2018-05-12T12:32:35.136Z,24.70
2018-05-12T12:35:03.211Z,24.90
2018-05-12T12:37:31.348Z,24.80
2018-05-12T12:39:59.447Z,24.70
2018-05-12T12:42:27.540Z,24.30
2018-05-12T12:44:55.648Z,24.60
2018-05-12T12:47:23.738Z,24.50
2018-05-12T12:49:52.607Z,24.80
2018-05-12T12:52:20.938Z,24.80
2018-05-12T12:54:49.241Z,25.00
2018-05-12T12:57:17.317Z,25.20
2018-05-12T12:59:45.426Z,25.30
2018-05-12T13:02:13.524Z,25.50
2018-05-12T13:04:41.644Z,25.30
2018-05-12T13:07:10.445Z,25.30
2018-05-12T13:09:39.565Z,25.20
2018-05-12T13:12:08.407Z,25.30
2018-05-12T13:14:36.500Z,25.50
2018-05-12T13:17:04.578Z,25.40
2018-05-12T13:19:32.688Z,25.40
2018-05-12T13:22:01.622Z,25.30
2018-05-12T13:24:29.595Z,25.30
2018-05-12T13:26:57.694Z,25.40
2018-05-12T13:29:25.772Z,25.50
2018-05-12T13:31:53.861Z,25.50
2018-05-12T13:34:22.724Z,25.50
2018-05-12T13:36:50.823Z,25.60
2018-05-12T13:39:18.913Z,25.60
2018-05-12T13:41:47.056Z,25.70
2018-05-12T13:44:15.158Z,25.70
2018-05-12T13:46:43.242Z,25.50
2018-05-12T13:49:11.375Z,25.70
2018-05-12T13:51:41.024Z,25.70
2018-05-12T13:54:09.145Z,25.80
2018-05-12T13:56:37.266Z,25.50
2018-05-12T13:59:05.363Z,25.50
2018-05-12T14:01:33.447Z,25.30
2018-05-12T14:04:01.754Z,25.40
2018-05-12T14:06:29.845Z,25.50
2018-05-12T14:08:57.966Z,25.60
2018-05-12T14:11:26.055Z,25.70
2018-05-12T14:13:54.155Z,25.50
2018-05-12T14:16:22.283Z,25.50
2018-05-12T14:18:50.366Z,25.30
2018-05-12T14:21:18.448Z,25.40
2018-05-12T14:23:46.543Z,25.40
2018-05-12T14:26:14.651Z,25.40
2018-05-12T14:28:42.703Z,25.30
2018-05-12T14:31:10.801Z,25.40
2018-05-12T14:33:38.895Z,25.40
2018-05-12T14:36:07.144Z,25.40
2018-05-12T14:38:35.224Z,25.40
2018-05-12T14:41:03.317Z,25.40
2018-05-12T14:43:31.457Z,25.50
2018-05-12T14:46:00.025Z,25.40
2018-05-12T14:48:28.113Z,25.60
2018-05-12T14:50:56.220Z,25.50
2018-05-12T14:53:24.320Z,25.50
2018-05-12T14:55:53.348Z,25.40
2018-05-12T14:58:21.432Z,25.20
2018-05-12T15:00:50.181Z,25.10
2018-05-12T15:03:19.036Z,25.00
2018-05-12T15:05:47.116Z,25.00
2018-05-12T15:08:15.231Z,25.00
2018-05-12T15:10:43.357Z,25.10
2018-05-12T15:13:11.448Z,25.10
2018-05-12T15:15:39.529Z,25.10
2018-05-12T15:18:07.636Z,25.10
2018-05-12T15:20:35.708Z,25.30
2018-05-12T15:23:03.827Z,25.50
2018-05-12T15:25:32.935Z,25.60
2018-05-12T15:28:01.781Z,25.50
2018-05-12T15:30:29.865Z,25.50
2018-05-12T15:32:57.959Z,25.40
2018-05-12T15:35:26.256Z,25.40
2018-05-12T15:37:55.957Z,25.30
2018-05-12T15:40:24.053Z,25.30
2018-05-12T15:42:52.144Z,25.30
2018-05-12T15:45:21.225Z,25.20
2018-05-12T15:47:49.321Z,25.10
2018-05-12T15:50:17.409Z,25.10
2018-05-12T15:52:45.495Z,25.10
2018-05-12T15:55:13.575Z,25.20
2018-05-12T15:57:41.682Z,25.20
2018-05-12T16:00:10.034Z,25.20
2018-05-12T16:02:38.225Z,25.20
2018-05-12T16:05:07.085Z,25.20
2018-05-12T16:07:35.175Z,25.10
2018-05-12T16:10:03.492Z,25.10
2018-05-12T16:12:31.673Z,25.10
2018-05-12T16:14:59.744Z,25.20
2018-05-12T16:17:27.833Z,25.10
2018-05-12T16:19:55.899Z,25.20
2018-05-12T16:22:24.016Z,25.10
2018-05-12T16:24:52.848Z,25.20
2018-05-12T16:27:21.904Z,25.20
2018-05-12T16:29:50.755Z,25.10
2018-05-12T16:32:18.883Z,25.10
2018-05-12T16:34:47.736Z,25.10
2018-05-12T16:37:15.865Z,25.10
2018-05-12T16:39:43.912Z,25.20
2018-05-12T16:42:11.996Z,25.20
2018-05-12T16:44:41.339Z,25.20
2018-05-12T16:47:09.438Z,25.20
2018-05-12T16:49:37.716Z,25.20
2018-05-12T16:52:05.835Z,25.20
2018-05-12T16:54:33.912Z,25.20
2018-05-12T16:57:01.986Z,25.10
2018-05-12T16:59:30.764Z,25.10
2018-05-12T17:01:58.901Z,25.00
2018-05-12T17:04:26.967Z,24.90
2018-05-12T17:06:55.802Z,24.80
2018-05-12T17:09:24.096Z,24.70
2018-05-12T17:11:52.180Z,24.60
2018-05-12T17:14:20.268Z,24.50
2018-05-12T17:16:48.355Z,24.40
2018-05-12T17:19:17.217Z,24.20
2018-05-12T17:21:45.316Z,24.20
2018-05-12T17:24:14.164Z,24.20
2018-05-12T17:26:42.248Z,24.10
2018-05-12T17:29:10.430Z,24.10
2018-05-12T17:31:38.448Z,24.10
2018-05-12T17:34:06.541Z,24.10
2018-05-12T17:36:35.534Z,24.00
2018-05-12T17:39:03.614Z,24.00
2018-05-12T17:41:31.758Z,23.90
2018-05-12T17:43:59.821Z,23.80
2018-05-12T17:46:30.866Z,23.70
2018-05-12T17:48:58.939Z,23.60
2018-05-12T17:51:27.048Z,23.50
2018-05-12T17:53:55.367Z,23.50
2018-05-12T17:56:24.235Z,23.40
2018-05-12T17:58:52.360Z,23.30
2018-05-12T18:01:20.447Z,23.20
2018-05-12T18:03:48.635Z,23.10
2018-05-12T18:06:16.673Z,23.00
2018-05-12T18:08:44.750Z,22.90
2018-05-12T18:11:12.844Z,22.80
2018-05-12T18:13:40.936Z,22.80
2018-05-12T18:16:09.065Z,22.70
2018-05-12T18:18:37.167Z,22.70
2018-05-12T18:21:05.904Z,22.60
2018-05-12T18:23:34.011Z,22.60
2018-05-12T18:26:02.859Z,22.50
2018-05-12T18:28:31.740Z,22.30
2018-05-12T18:30:59.820Z,22.10
2018-05-12T18:33:27.888Z,21.80
2018-05-12T18:35:56.227Z,21.60
2018-05-12T18:38:24.351Z,21.30
2018-05-12T18:40:53.220Z,21.00
2018-05-12T18:43:21.972Z,21.00
2018-05-12T18:45:50.062Z,21.20
2018-05-12T18:48:21.161Z,21.20
2018-05-12T18:50:49.253Z,21.00
2018-05-12T18:53:17.338Z,21.00
2018-05-12T18:55:45.520Z,21.00
2018-05-12T18:58:14.281Z,20.70
2018-05-12T19:00:42.612Z,20.50
2018-05-12T19:03:12.692Z,20.50
2018-05-12T19:05:42.523Z,20.40
2018-05-12T19:08:11.997Z,20.30
2018-05-12T19:10:40.681Z,20.40
2018-05-12T19:13:08.767Z,20.20
2018-05-12T19:15:38.052Z,20.30
2018-05-12T19:18:07.577Z,20.20
2018-05-12T19:20:35.861Z,20.10
2018-05-12T19:23:05.392Z,20.00
2018-05-12T19:25:33.947Z,20.00
2018-05-12T19:28:02.291Z,19.90
2018-05-12T19:30:30.555Z,19.90
2018-05-12T19:32:59.529Z,19.90
2018-05-12T19:35:28.139Z,19.80
2018-05-12T19:37:56.392Z,19.50
2018-05-12T19:40:30.758Z,19.50
2018-05-12T19:42:58.856Z,19.40
2018-05-12T19:45:27.701Z,19.50
2018-05-12T19:47:56.474Z,19.40
2018-05-12T19:50:30.289Z,19.30
2018-05-12T19:53:03.115Z,19.20
2018-05-12T19:55:31.913Z,19.00
2018-05-12T19:58:00.716Z,18.80
2018-05-12T20:00:28.881Z,18.80
2018-05-12T20:02:57.772Z,18.70
2018-05-12T20:05:26.548Z,18.80
2018-05-12T20:07:54.751Z,18.70
2018-05-12T20:10:24.299Z,18.50
2018-05-12T20:12:52.548Z,18.50
2018-05-12T20:15:21.628Z,18.60
2018-05-12T20:17:50.681Z,18.70
2018-05-12T20:20:19.579Z,18.60
2018-05-12T20:22:51.808Z,18.50
2018-05-12T20:25:21.040Z,18.30
2018-05-12T20:27:49.896Z,18.20
2018-05-12T20:30:19.737Z,18.20
2018-05-12T20:32:49.452Z,18.10
2018-05-12T20:35:20.850Z,18.20
2018-05-12T20:37:49.212Z,18.10
2018-05-12T20:40:17.998Z,18.00
2018-05-12T20:42:46.919Z,17.80
2018-05-12T20:45:16.775Z,17.90
2018-05-12T20:47:45.089Z,18.00
2018-05-12T20:50:14.073Z,17.80
2018-05-12T20:52:42.377Z,17.60
2018-05-12T20:55:12.943Z,17.60
2018-05-12T20:57:41.736Z,17.70
2018-05-12T21:00:10.080Z,17.80
2018-05-12T21:02:38.424Z,17.70
2018-05-12T21:05:06.881Z,17.70
2018-05-12T21:07:35.667Z,17.80
2018-05-12T21:10:07.349Z,17.70
2018-05-12T21:12:35.889Z,17.60
2018-05-12T21:15:04.193Z,17.30
2018-05-12T21:17:32.508Z,17.50
2018-05-12T21:20:01.097Z,17.50
2018-05-12T21:22:29.260Z,17.50
2018-05-12T21:24:59.641Z,17.40
2018-05-12T21:27:29.291Z,17.50
2018-05-12T21:29:59.050Z,17.40
2018-05-12T21:32:27.848Z,17.40
2018-05-12T21:34:56.195Z,17.30
2018-05-12T21:37:25.736Z,17.20
2018-05-12T21:39:54.067Z,17.20
2018-05-12T21:42:25.027Z,17.00
2018-05-12T21:44:54.573Z,17.10
2018-05-12T21:47:23.033Z,17.20
2018-05-12T21:49:52.036Z,17.30
2018-05-12T21:52:20.560Z,17.20
2018-05-12T21:54:48.970Z,17.30
2018-05-12T21:57:17.115Z,17.20
2018-05-12T21:59:46.016Z,17.10
2018-05-12T22:02:14.783Z,17.10
2018-05-12T22:04:43.317Z,17.00
2018-05-12T22:07:11.641Z,16.80
2018-05-12T22:09:40.803Z,16.90
2018-05-12T22:12:09.555Z,17.10
2018-05-12T22:14:38.620Z,17.00
2018-05-12T22:17:06.920Z,17.10
2018-05-12T22:19:36.298Z,17.00
2018-05-12T22:22:04.412Z,17.10
2018-05-12T22:24:33.267Z,17.20
2018-05-12T22:27:01.573Z,17.10
2018-05-12T22:29:30.814Z,17.30
2018-05-12T22:31:59.540Z,17.20
2018-05-12T22:34:28.637Z,17.20
2018-05-12T22:36:57.124Z,17.10
2018-05-12T22:39:27.387Z,17.10
2018-05-12T22:41:55.507Z,17.00
2018-05-12T22:44:23.811Z,17.10
2018-05-12T22:46:52.149Z,17.00
2018-05-12T22:49:20.352Z,17.10
2018-05-12T22:51:49.906Z,17.00
2018-05-12T22:54:18.697Z,16.90
2018-05-12T22:56:47.496Z,17.10
2018-05-12T22:59:15.796Z,17.00
2018-05-12T23:01:44.782Z,17.00
2018-05-12T23:04:13.112Z,16.90
2018-05-12T23:06:41.535Z,16.80
2018-05-12T23:09:10.956Z,16.90
2018-05-12T23:11:39.289Z,16.70
2018-05-12T23:14:08.101Z,16.70
2018-05-12T23:16:36.439Z,16.70
2018-05-12T23:19:04.959Z,16.70
2018-05-12T23:21:33.170Z,16.90
2018-05-12T23:24:03.919Z,17.00
2018-05-12T23:26:32.331Z,17.00
2018-05-12T23:29:01.105Z,17.10
2018-05-12T23:31:29.421Z,17.10
2018-05-12T23:33:57.764Z,16.90
2018-05-12T23:36:26.567Z,17.00
2018-05-12T23:38:55.555Z,17.00
2018-05-12T23:41:28.004Z,16.90
2018-05-12T23:43:59.850Z,17.10
2018-05-12T23:46:29.501Z,17.10
2018-05-12T23:48:57.834Z,17.10
2018-05-12T23:51:26.717Z,17.10
2018-05-12T23:53:55.853Z,17.10
2018-05-12T23:56:27.516Z,17.10
2018-05-12T23:58:55.909Z,17.00
